Time;durP1;ratioP1;P1;durP2;ratioP2;P2;SDS_P1;SDS_P2;PMS_P1;PMS_P2;Temp;Humidity;BMP_temperature;BMP_pressure;BME280_temperature;BME280_humidity;BME280_pressure;Samples;Min_cycle;Max_cycle;Signal;HPM_P1;HPM_P2
2023/12/22 00:00:59;;;;;;;108.90;62.20;;;;;;;3.15;100.00;99163.48;105459;1263;62462;-75
2023/12/22 00:03:26;;;;;;;104.20;65.10;;;;;;;3.18;100.00;99168.50;105242;1264;71422;-75
2023/12/22 00:05:53;;;;;;;99.90;59.80;;;;;;;3.21;100.00;99175.44;105162;1264;60275;-75
2023/12/22 00:08:20;;;;;;;103.30;59.70;;;;;;;3.23;100.00;99169.65;105428;1260;59687;-74
2023/12/22 00:10:47;;;;;;;107.40;59.00;;;;;;;3.25;100.00;99169.55;105591;1263;71970;-75
2023/12/22 00:13:15;;;;;;;109.60;60.60;;;;;;;3.25;100.00;99161.20;105426;1267;63767;-75
2023/12/22 00:15:43;;;;;;;112.10;62.70;;;;;;;3.27;100.00;99155.28;105668;1256;72642;-76
2023/12/22 00:18:10;;;;;;;116.00;64.80;;;;;;;3.27;100.00;99152.52;105710;1259;61175;-77
2023/12/22 00:20:37;;;;;;;103.80;59.30;;;;;;;3.25;100.00;99147.63;105767;1254;60235;-76
2023/12/22 00:23:03;;;;;;;96.40;54.10;;;;;;;3.22;100.00;99144.64;105955;1258;73004;-77
2023/12/22 00:25:30;;;;;;;99.60;56.20;;;;;;;3.20;100.00;99146.66;105709;1259;63939;-77
2023/12/22 00:27:58;;;;;;;92.20;53.50;;;;;;;3.17;100.00;99151.98;105729;1255;72577;-76
2023/12/22 00:30:25;;;;;;;87.20;51.40;;;;;;;3.15;100.00;99149.34;105652;1254;59870;-76
2023/12/22 00:32:52;;;;;;;90.40;48.30;;;;;;;3.14;100.00;99145.98;105803;1254;60334;-76
2023/12/22 00:35:18;;;;;;;82.50;46.20;;;;;;;3.11;100.00;99139.16;105755;1259;73089;-76
2023/12/22 00:37:45;;;;;;;71.90;42.90;;;;;;;3.08;100.00;99135.18;105963;1259;62372;-78
2023/12/22 00:40:13;;;;;;;64.10;40.20;;;;;;;3.06;100.00;99136.36;105744;1259;72622;-76
2023/12/22 00:42:39;;;;;;;59.20;37.40;;;;;;;3.03;100.00;99140.45;106042;1259;60963;-76
2023/12/22 00:45:07;;;;;;;50.20;34.60;;;;;;;3.01;100.00;99143.16;105629;1257;60179;-74
2023/12/22 00:47:37;;;;;;;45.20;31.40;;;;;;;3.00;100.00;99131.34;105832;1260;73105;-75
2023/12/22 00:50:04;;;;;;;47.50;32.70;;;;;;;2.97;100.00;99127.64;105749;1256;62402;-75
2023/12/22 00:52:32;;;;;;;48.40;31.40;;;;;;;2.97;100.00;99120.62;105704;1256;72603;-77
2023/12/22 00:54:59;;;;;;;50.80;31.70;;;;;;;2.96;100.00;99125.48;105592;1259;61323;-76
2023/12/22 00:57:26;;;;;;;43.90;31.40;;;;;;;2.96;100.00;99120.48;105554;1256;60190;-75
2023/12/22 00:59:53;;;;;;;48.60;32.00;;;;;;;2.97;100.00;99118.73;105611;1257;70523;-76
2023/12/22 01:02:20;;;;;;;48.70;31.90;;;;;;;2.97;100.00;99115.10;105647;1259;63894;-78
2023/12/22 01:04:47;;;;;;;45.60;30.80;;;;;;;2.98;100.00;99115.02;105585;1256;72679;-76
2023/12/22 01:07:16;;;;;;;44.40;31.20;;;;;;;2.98;100.00;99113.27;105582;1257;60091;-77
2023/12/22 01:09:43;;;;;;;43.00;27.10;;;;;;;2.98;100.00;99115.91;105522;1256;60299;-76
2023/12/22 01:12:10;;;;;;;41.30;27.80;;;;;;;2.95;100.00;99120.86;105866;1253;71583;-76
2023/12/22 01:14:38;;;;;;;44.70;25.80;;;;;;;2.92;100.00;99120.20;105810;1255;63851;-75
2023/12/22 01:17:04;;;;;;;36.70;23.20;;;;;;;2.89;100.00;99116.70;105793;1255;72595;-76
2023/12/22 01:19:31;;;;;;;37.30;23.70;;;;;;;2.87;100.00;99115.08;105972;1256;61222;-77
2023/12/22 01:21:59;;;;;;;37.10;23.70;;;;;;;2.85;100.00;99119.13;106583;1254;60302;-75
2023/12/22 01:24:26;;;;;;;40.60;23.60;;;;;;;2.83;100.00;99112.34;109104;1252;71889;-75
2023/12/22 01:26:53;;;;;;;38.30;24.00;;;;;;;2.84;100.00;99109.05;108860;1252;62581;-75
2023/12/22 01:29:20;;;;;;;34.40;23.40;;;;;;;2.84;100.00;99108.34;109082;1253;71431;-75
2023/12/22 01:31:47;;;;;;;39.60;23.80;;;;;;;2.86;100.00;99099.24;109108;1252;59606;-75
2023/12/22 01:34:14;;;;;;;34.70;23.30;;;;;;;2.88;100.00;99092.25;106248;1255;59565;-77
2023/12/22 01:36:40;;;;;;;38.30;22.30;;;;;;;2.88;100.00;99078.73;105760;1255;73338;-75
2023/12/22 01:39:07;;;;;;;44.10;24.70;;;;;;;2.88;100.00;99072.93;105721;1256;62476;-76
2023/12/22 01:41:36;;;;;;;46.70;26.10;;;;;;;2.85;100.00;99065.63;105824;1256;72727;-75
2023/12/22 01:44:03;;;;;;;45.80;27.00;;;;;;;2.84;100.00;99057.25;105910;1255;61097;-77
2023/12/22 01:46:30;;;;;;;41.60;23.60;;;;;;;2.84;100.00;99050.19;105852;1253;60346;-76
2023/12/22 01:48:57;;;;;;;42.80;23.70;;;;;;;2.84;100.00;99045.70;105685;1254;73049;-77
2023/12/22 01:51:24;;;;;;;39.80;24.40;;;;;;;2.84;100.00;99038.29;105719;1257;63711;-77
2023/12/22 01:53:52;;;;;;;45.30;25.10;;;;;;;2.84;100.00;99039.13;105750;1253;70286;-76
2023/12/22 01:56:19;;;;;;;45.70;25.80;;;;;;;2.86;100.00;99035.56;105641;1258;59670;-75
2023/12/22 01:58:46;;;;;;;40.40;25.20;;;;;;;2.88;100.00;99026.83;105701;1255;59534;-77
2023/12/22 02:01:16;;;;;;;40.80;23.50;;;;;;;2.89;100.00;99024.72;105754;1254;71754;-76
2023/12/22 02:03:44;;;;;;;40.20;24.60;;;;;;;2.89;100.00;99024.52;105622;1262;64351;-77
2023/12/22 02:06:11;;;;;;;39.80;22.90;;;;;;;2.90;100.00;99023.45;105785;1253;72565;-78
2023/12/22 02:08:37;;;;;;;41.70;24.30;;;;;;;2.92;100.00;99023.70;105646;1256;61227;-76
2023/12/22 02:11:04;;;;;;;33.80;21.10;;;;;;;2.94;100.00;99017.86;105693;1257;59555;-76
2023/12/22 02:13:33;;;;;;;37.90;22.80;;;;;;;2.96;100.00;99018.82;105901;1256;73174;-75
2023/12/22 02:16:04;;;;;;;35.40;20.60;;;;;;;2.94;100.00;99017.01;105958;1253;62610;-75
2023/12/22 02:18:34;;;;;;;35.30;21.60;;;;;;;2.92;100.00;99014.39;105938;1252;72633;-76
2023/12/22 02:21:00;;;;;;;33.90;22.20;;;;;;;2.88;100.00;99017.34;106025;1255;59673;-76
2023/12/22 02:23:27;;;;;;;33.50;21.10;;;;;;;2.85;100.00;99017.64;105847;1253;60328;-76
2023/12/22 02:26:01;;;;;;;35.20;23.00;;;;;;;2.88;100.00;99014.40;105913;1253;71701;-76
2023/12/22 02:28:28;;;;;;;36.90;24.70;;;;;;;2.93;100.00;99014.84;105757;1256;63738;-76
2023/12/22 02:31:44;;;;;;;39.60;26.70;;;;;;;2.99;100.00;99006.92;105517;1259;71834;-76
2023/12/22 02:34:12;;;;;;;;;;;;;;;3.06;100.00;98997.86;105592;1258;61190;-76
2023/12/22 02:36:39;;;;;;;42.00;25.60;;;;;;;3.11;100.00;98991.21;105743;1251;59601;-75
2023/12/22 02:39:06;;;;;;;42.80;26.00;;;;;;;3.15;100.00;98987.92;105667;1258;71976;-77
2023/12/22 02:41:33;;;;;;;46.00;27.70;;;;;;;3.19;100.00;98987.01;105795;1252;63838;-75
2023/12/22 02:44:01;;;;;;;40.30;25.40;;;;;;;3.22;100.00;98984.74;105935;1256;72703;-74
2023/12/22 02:46:28;;;;;;;41.00;23.50;;;;;;;3.24;100.00;98985.16;105805;1255;61234;-75
2023/12/22 02:48:55;;;;;;;42.70;25.20;;;;;;;3.27;100.00;98986.56;105782;1255;59624;-75
2023/12/22 02:51:21;;;;;;;41.70;24.20;;;;;;;3.29;100.00;98976.77;105948;1253;73028;-75
2023/12/22 02:53:48;;;;;;;52.50;27.00;;;;;;;3.30;100.00;98967.03;105815;1255;63873;-74
2023/12/22 02:56:15;;;;;;;47.60;25.30;;;;;;;3.30;100.00;98966.48;105830;1253;71172;-74
2023/12/22 02:58:42;;;;;;;46.80;25.30;;;;;;;3.28;100.00;98961.41;105863;1256;61040;-75
2023/12/22 03:01:09;;;;;;;49.10;27.30;;;;;;;3.27;100.00;98957.89;105815;1256;59804;-75
2023/12/22 03:03:36;;;;;;;58.10;29.60;;;;;;;3.27;100.00;98956.67;105755;1254;73059;-76
2023/12/22 03:06:03;;;;;;;45.70;25.30;;;;;;;3.26;100.00;98954.27;105838;1253;63746;-76
2023/12/22 03:08:30;;;;;;;41.80;22.80;;;;;;;3.26;100.00;98953.91;105730;1254;71732;-75
2023/12/22 03:10:57;;;;;;;37.90;23.10;;;;;;;3.25;100.00;98954.67;105757;1253;60114;-77
2023/12/22 03:13:24;;;;;;;36.50;21.20;;;;;;;3.24;100.00;98942.64;105690;1253;61138;-76
2023/12/22 03:15:51;;;;;;;34.30;20.30;;;;;;;3.24;100.00;98942.14;105805;1255;73101;-74
2023/12/22 03:18:18;;;;;;;34.30;21.80;;;;;;;3.23;100.00;98937.52;105921;1254;62642;-76
2023/12/22 03:20:44;;;;;;;32.60;22.40;;;;;;;3.24;100.00;98934.02;105756;1253;72321;-76
2023/12/22 03:23:12;;;;;;;35.10;23.00;;;;;;;3.24;100.00;98925.39;105755;1253;59757;-76
2023/12/22 03:25:39;;;;;;;41.60;23.10;;;;;;;3.25;100.00;98921.58;105781;1255;60376;-76
2023/12/22 03:28:05;;;;;;;39.40;23.40;;;;;;;3.26;100.00;98919.04;106157;1253;73231;-78
2023/12/22 03:30:32;;;;;;;41.70;24.70;;;;;;;3.28;100.00;98911.86;105792;1258;65783;-76
2023/12/22 03:32:59;;;;;;;43.20;24.80;;;;;;;3.30;100.00;98905.71;105729;1255;72931;-75
2023/12/22 03:35:26;;;;;;;45.60;25.40;;;;;;;3.33;100.00;98900.19;105806;1252;61278;-76
2023/12/22 03:37:53;;;;;;;43.80;27.10;;;;;;;3.35;100.00;98898.52;105889;1255;60525;-74
2023/12/22 03:40:20;;;;;;;47.20;27.80;;;;;;;3.38;100.00;98888.66;105875;1255;73645;-77
2023/12/22 03:42:48;;;;;;;47.00;28.40;;;;;;;3.41;100.00;98891.62;105889;1254;62482;-74
2023/12/22 03:45:14;;;;;;;53.40;28.50;;;;;;;3.42;100.00;98887.21;105876;1255;72661;-76
2023/12/22 03:47:41;;;;;;;47.10;28.80;;;;;;;3.43;100.00;98878.04;105758;1254;60406;-75
2023/12/22 03:50:08;;;;;;;48.10;28.40;;;;;;;3.43;100.00;98875.40;105609;1260;60452;-75
2023/12/22 03:52:36;;;;;;;40.70;25.40;;;;;;;3.45;100.00;98876.50;105836;1253;73815;-76
2023/12/22 03:55:03;;;;;;;43.50;25.90;;;;;;;3.47;100.00;98876.36;105820;1253;65054;-76
2023/12/22 03:57:30;;;;;;;47.50;26.10;;;;;;;3.49;100.00;98870.58;105829;1253;72615;-75
2023/12/22 03:59:57;;;;;;;46.40;25.90;;;;;;;3.50;100.00;98865.98;105744;1255;61089;-77
2023/12/22 04:02:24;;;;;;;35.30;23.20;;;;;;;3.55;100.00;98869.20;106184;1252;60355;-74
2023/12/22 04:04:50;;;;;;;38.50;25.90;;;;;;;3.57;100.00;98865.41;107882;1255;73835;-75
2023/12/22 04:07:17;;;;;;;43.40;26.90;;;;;;;3.62;100.00;98867.20;107049;1252;62774;-75
2023/12/22 04:09:44;;;;;;;37.50;23.80;;;;;;;3.66;100.00;98866.30;106478;1254;71521;-74
2023/12/22 04:12:11;;;;;;;42.40;25.20;;;;;;;3.68;100.00;98862.71;106021;1253;60395;-76
2023/12/22 04:14:38;;;;;;;32.40;22.50;;;;;;;3.69;100.00;98855.34;105987;1255;60428;-76
2023/12/22 04:17:05;;;;;;;32.40;23.50;;;;;;;3.70;100.00;98852.21;105835;1253;74892;-77
2023/12/22 04:19:31;;;;;;;37.90;24.80;;;;;;;3.69;100.00;98851.91;105762;1254;63716;-77
2023/12/22 04:21:58;;;;;;;38.90;25.00;;;;;;;3.70;100.00;98855.17;105725;1256;72513;-76
2023/12/22 04:24:25;;;;;;;36.90;23.30;;;;;;;3.69;100.00;98847.61;105818;1253;60997;-74
2023/12/22 04:26:52;;;;;;;32.70;22.40;;;;;;;3.70;100.00;98843.08;105953;1256;60417;-74
2023/12/22 04:29:20;;;;;;;34.00;23.00;;;;;;;3.68;100.00;98842.62;105840;1253;73575;-76
2023/12/22 04:31:47;;;;;;;34.10;24.40;;;;;;;3.63;100.00;98840.88;105867;1255;63948;-76
2023/12/22 04:34:15;;;;;;;39.00;24.60;;;;;;;3.59;100.00;98839.09;105765;1253;72648;-75
2023/12/22 04:36:42;;;;;;;37.60;23.30;;;;;;;3.60;100.00;98834.15;105809;1255;60978;-74
2023/12/22 04:39:09;;;;;;;35.50;22.10;;;;;;;3.63;100.00;98831.94;105741;1251;60566;-76
2023/12/22 04:41:40;;;;;;;34.20;21.30;;;;;;;3.63;100.00;98824.84;105891;1253;72348;-78
2023/12/22 04:44:07;;;;;;;30.50;22.70;;;;;;;3.62;100.00;98821.44;106152;1256;64303;-75
2023/12/22 04:46:35;;;;;;;36.00;25.10;;;;;;;3.60;100.00;98815.64;105854;1256;72331;-76
2023/12/22 04:49:02;;;;;;;32.90;21.10;;;;;;;3.63;100.00;98816.88;105775;1256;61291;-74
2023/12/22 04:51:29;;;;;;;31.60;22.80;;;;;;;3.65;100.00;98811.73;105840;1253;60483;-75
2023/12/22 04:53:56;;;;;;;35.50;22.30;;;;;;;3.63;100.00;98816.68;105890;1255;73834;-76
2023/12/22 04:56:23;;;;;;;37.00;22.30;;;;;;;3.61;100.00;98821.80;105949;1253;63902;-76
2023/12/22 04:58:50;;;;;;;39.50;22.60;;;;;;;3.60;100.00;98830.02;105800;1253;72468;-76
2023/12/22 05:01:18;;;;;;;33.20;20.20;;;;;;;3.58;100.00;98833.58;105744;1254;60428;-74
2023/12/22 05:03:45;;;;;;;29.90;20.00;;;;;;;3.60;100.00;98833.31;105951;1254;60990;-75
2023/12/22 05:06:12;;;;;;;37.10;21.30;;;;;;;3.60;100.00;98833.48;105735;1254;73808;-75
2023/12/22 05:08:39;;;;;;;41.40;21.60;;;;;;;3.60;100.00;98836.39;105782;1256;63921;-74
2023/12/22 05:11:06;;;;;;;30.80;21.70;;;;;;;3.60;100.00;98839.69;105724;1256;71500;-77
2023/12/22 05:13:32;;;;;;;31.30;20.90;;;;;;;3.58;100.00;98840.52;105886;1256;60461;-76
2023/12/22 05:16:00;;;;;;;29.70;20.00;;;;;;;3.57;100.00;98845.73;105821;1253;60886;-76
2023/12/22 05:18:26;;;;;;;25.20;17.20;;;;;;;3.56;100.00;98850.11;106137;1253;72473;-75
2023/12/22 05:20:54;;;;;;;19.00;14.20;;;;;;;3.54;100.00;98851.47;106671;1253;62214;-75
2023/12/22 05:23:21;;;;;;;21.80;15.90;;;;;;;3.51;100.00;98861.13;108083;1252;71525;-74
2023/12/22 05:25:48;;;;;;;19.80;14.60;;;;;;;3.48;100.00;98867.15;108443;1253;61471;-76
2023/12/22 05:28:15;;;;;;;22.70;14.90;;;;;;;3.46;100.00;98870.21;109100;1253;58859;-76
2023/12/22 05:30:43;;;;;;;23.20;16.20;;;;;;;3.47;100.00;98866.70;107447;1253;72809;-75
2023/12/22 05:33:11;;;;;;;21.40;15.10;;;;;;;3.50;100.00;98863.23;105828;1254;62384;-77
2023/12/22 05:35:38;;;;;;;19.90;16.20;;;;;;;3.52;100.00;98861.39;105765;1255;71478;-77
2023/12/22 05:38:07;;;;;;;22.20;17.10;;;;;;;3.55;100.00;98865.57;105905;1255;60530;-76
2023/12/22 05:40:34;;;;;;;26.60;18.10;;;;;;;3.59;100.00;98865.86;105708;1256;60346;-76
2023/12/22 05:43:00;;;;;;;28.30;17.30;;;;;;;3.62;100.00;98862.91;106220;1254;73862;-76
2023/12/22 05:45:28;;;;;;;24.80;17.50;;;;;;;3.64;100.00;98858.61;105773;1255;63980;-76
2023/12/22 05:47:55;;;;;;;23.40;15.90;;;;;;;3.66;100.00;98862.16;105688;1258;72359;-75
2023/12/22 05:50:22;;;;;;;26.40;18.00;;;;;;;3.65;100.00;98854.41;105710;1255;61222;-79
2023/12/22 05:52:50;;;;;;;25.20;17.10;;;;;;;3.63;100.00;98842.27;105914;1256;60346;-78
2023/12/22 05:55:16;;;;;;;24.60;17.90;;;;;;;3.62;100.00;98838.48;105709;1255;73878;-76
2023/12/22 05:57:43;;;;;;;25.10;18.60;;;;;;;3.63;100.00;98829.30;105905;1255;62382;-76
2023/12/22 06:00:12;;;;;;;24.50;17.60;;;;;;;3.65;100.00;98827.80;105765;1256;72661;-76
2023/12/22 06:02:39;;;;;;;25.80;18.70;;;;;;;3.69;100.00;98825.48;105739;1255;62180;-76
2023/12/22 06:05:07;;;;;;;29.50;20.60;;;;;;;3.71;100.00;98830.19;105841;1257;60373;-77
2023/12/22 06:07:34;;;;;;;28.70;20.10;;;;;;;3.74;100.00;98823.64;105829;1255;72801;-78
2023/12/22 06:10:00;;;;;;;27.50;19.40;;;;;;;3.76;100.00;98816.59;105710;1253;63585;-76
2023/12/22 06:12:28;;;;;;;26.30;19.40;;;;;;;3.78;100.00;98814.60;106437;1251;72574;-77
2023/12/22 06:14:56;;;;;;;31.00;19.80;;;;;;;3.78;100.00;98815.95;105737;1255;61035;-77
2023/12/22 06:17:23;;;;;;;28.70;18.70;;;;;;;3.78;100.00;98810.42;105909;1253;60438;-76
2023/12/22 06:19:50;;;;;;;27.20;18.10;;;;;;;3.80;100.00;98812.40;105814;1255;72831;-77
2023/12/22 06:22:17;;;;;;;26.00;17.60;;;;;;;3.80;100.00;98813.07;105804;1256;64086;-77
2023/12/22 06:24:44;;;;;;;28.80;18.30;;;;;;;3.83;100.00;98814.45;105837;1253;71728;-78
2023/12/22 06:27:11;;;;;;;24.90;17.50;;;;;;;3.85;100.00;98814.46;105785;1256;60496;-78
2023/12/22 06:29:39;;;;;;;24.60;17.90;;;;;;;3.88;100.00;98821.91;105866;1255;60309;-77
2023/12/22 06:32:06;;;;;;;24.40;17.90;;;;;;;3.93;100.00;98832.67;105865;1258;73970;-77
2023/12/22 06:34:35;;;;;;;25.30;18.50;;;;;;;4.00;100.00;98836.59;105675;1254;63839;-76
2023/12/22 06:37:03;;;;;;;25.80;17.90;;;;;;;4.07;100.00;98845.11;105716;1256;72671;-75
2023/12/22 06:39:31;;;;;;;24.90;17.70;;;;;;;4.16;100.00;98846.83;105844;1256;61113;-75
2023/12/22 06:41:58;;;;;;;23.10;18.20;;;;;;;4.23;100.00;98852.41;105813;1255;60913;-75
2023/12/22 06:44:26;;;;;;;23.60;17.30;;;;;;;4.32;100.00;98849.95;105784;1252;72437;-77
2023/12/22 06:46:53;;;;;;;21.20;16.20;;;;;;;4.39;100.00;98842.41;105778;1252;62397;-76
2023/12/22 06:49:20;;;;;;;21.40;17.40;;;;;;;4.45;100.00;98833.95;105861;1255;72608;-75
2023/12/22 06:51:46;;;;;;;23.50;16.40;;;;;;;4.48;100.00;98824.71;105769;1258;61306;-77
2023/12/22 06:54:13;;;;;;;23.40;16.10;;;;;;;4.47;100.00;98815.79;105767;1256;60438;-77
2023/12/22 06:56:43;;;;;;;22.90;17.00;;;;;;;4.42;100.00;98814.71;105909;1257;72539;-77
2023/12/22 06:59:11;;;;;;;21.80;17.30;;;;;;;4.41;100.00;98810.33;105810;1256;63861;-77
2023/12/22 07:01:38;;;;;;;29.40;20.10;;;;;;;4.43;100.00;98807.94;106167;1256;72501;-78
2023/12/22 07:04:06;;;;;;;24.50;19.10;;;;;;;4.45;100.00;98808.17;105902;1256;60515;-77
2023/12/22 07:06:34;;;;;;;24.50;18.40;;;;;;;4.47;100.00;98805.95;106148;1254;60442;-76
2023/12/22 07:09:15;;;;;;;22.80;18.10;;;;;;;4.48;100.00;98804.48;105849;1257;73835;-76
2023/12/22 07:11:47;;;;;;;27.40;18.60;;;;;;;4.47;100.00;98796.61;105876;1255;62566;-76
2023/12/22 07:14:15;;;;;;;27.20;18.10;;;;;;;4.45;100.00;98787.95;105762;1256;72729;-75
2023/12/22 07:16:43;;;;;;;30.60;21.90;;;;;;;4.41;100.00;98784.04;105775;1255;60395;-76
2023/12/22 07:19:12;;;;;;;22.30;16.30;;;;;;;4.38;100.00;98781.06;105658;1267;60345;-76
2023/12/22 07:21:40;;;;;;;25.70;18.40;;;;;;;4.36;100.00;98773.08;105924;1255;72535;-75
2023/12/22 07:24:12;;;;;;;30.50;20.00;;;;;;;4.34;100.00;98784.63;105730;1257;63875;-75
2023/12/22 07:26:44;;;;;;;28.00;21.00;;;;;;;4.37;100.00;98799.67;105763;1258;72493;-76
2023/12/22 07:29:11;;;;;;;29.30;21.10;;;;;;;4.44;100.00;98798.36;105798;1256;61167;-78
2023/12/22 07:31:38;;;;;;;24.00;17.80;;;;;;;4.51;100.00;98794.97;105774;1254;60451;-78
2023/12/22 07:34:05;;;;;;;32.20;19.30;;;;;;;4.54;100.00;98791.48;105849;1256;72467;-75
2023/12/22 07:36:36;;;;;;;23.20;17.10;;;;;;;4.56;100.00;98795.86;105780;1257;63761;-76
2023/12/22 07:39:15;;;;;;;26.60;19.60;;;;;;;4.58;100.00;98793.31;105772;1254;72742;-77
2023/12/22 07:41:44;;;;;;;27.40;19.60;;;;;;;4.64;100.00;98791.55;105850;1256;60662;-76
2023/12/22 07:44:11;;;;;;;28.70;19.30;;;;;;;4.68;100.00;98792.46;105803;1253;60471;-76
2023/12/22 07:46:43;;;;;;;25.60;18.50;;;;;;;4.72;100.00;98790.84;105843;1254;72705;-75
2023/12/22 07:49:10;;;;;;;27.00;20.50;;;;;;;4.76;100.00;98795.55;105747;1260;61513;-76
2023/12/22 07:51:37;;;;;;;27.40;20.10;;;;;;;4.83;100.00;98797.02;105793;1255;72724;-77
2023/12/22 07:54:06;;;;;;;26.60;19.40;;;;;;;4.90;100.00;98795.02;105805;1257;61165;-76
2023/12/22 07:56:33;;;;;;;30.20;20.70;;;;;;;4.95;100.00;98791.38;105763;1256;60525;-77
2023/12/22 07:59:02;;;;;;;28.20;20.60;;;;;;;5.01;100.00;98790.17;105799;1256;73895;-75
2023/12/22 08:01:48;;;;;;;26.00;19.10;;;;;;;5.02;100.00;98789.38;105847;1255;63592;-75
2023/12/22 08:04:15;;;;;;;27.70;20.70;;;;;;;5.02;100.00;98782.64;105725;1254;72737;-78
2023/12/22 08:06:42;;;;;;;22.80;18.30;;;;;;;5.02;100.00;98780.19;105868;1257;61161;-75
2023/12/22 08:09:10;;;;;;;24.90;17.30;;;;;;;5.04;100.00;98774.73;105898;1255;60423;-76
2023/12/22 08:11:37;;;;;;;25.90;18.10;;;;;;;5.03;100.00;98770.23;105905;1264;73931;-76
2023/12/22 08:14:04;;;;;;;24.80;19.10;;;;;;;5.00;100.00;98763.20;105668;1257;63673;-77
2023/12/22 08:16:32;;;;;;;23.60;19.00;;;;;;;4.94;100.00;98759.94;105872;1256;72762;-76
2023/12/22 08:19:00;;;;;;;29.30;20.40;;;;;;;4.92;100.00;98755.89;105921;1253;60432;-76
2023/12/22 08:21:27;;;;;;;25.00;18.70;;;;;;;4.93;100.00;98746.15;105892;1254;60422;-75
2023/12/22 08:24:11;;;;;;;24.20;17.70;;;;;;;4.92;100.00;98742.92;105830;1257;71756;-76
2023/12/22 08:26:45;;;;;;;23.00;17.40;;;;;;;4.90;100.00;98738.89;105785;1256;62488;-79
2023/12/22 08:29:13;;;;;;;25.50;18.90;;;;;;;4.91;100.00;98727.75;106077;1256;72707;-77
2023/12/22 08:31:40;;;;;;;20.70;17.30;;;;;;;4.96;100.00;98726.39;105755;1254;60460;-76
2023/12/22 08:34:07;;;;;;;20.80;17.00;;;;;;;4.99;100.00;98723.91;105792;1252;60435;-73
2023/12/22 08:36:34;;;;;;;22.20;17.20;;;;;;;4.97;100.00;98726.80;105836;1259;73183;-77
2023/12/22 08:39:03;;;;;;;20.70;17.80;;;;;;;4.93;100.00;98730.70;105930;1257;63896;-75
2023/12/22 08:41:35;;;;;;;27.70;19.60;;;;;;;4.89;100.00;98728.26;105875;1254;74505;-74
2023/12/22 08:44:04;;;;;;;23.80;18.00;;;;;;;4.89;100.00;98726.31;105853;1253;61071;-75
2023/12/22 08:46:31;;;;;;;25.60;17.30;;;;;;;4.95;100.00;98722.64;105825;1254;60431;-76
2023/12/22 08:49:01;;;;;;;24.50;18.90;;;;;;;4.99;100.00;98721.32;105820;1257;73875;-77
2023/12/22 08:51:28;;;;;;;26.60;18.40;;;;;;;5.02;100.00;98724.25;105771;1256;64028;-77
2023/12/22 08:53:55;;;;;;;27.70;18.30;;;;;;;5.03;100.00;98720.92;105770;1257;71225;-76
2023/12/22 08:56:22;;;;;;;23.40;17.40;;;;;;;5.07;100.00;98717.02;105841;1265;60855;-78
2023/12/22 08:58:54;;;;;;;23.40;16.20;;;;;;;5.10;100.00;98711.92;105886;1256;60461;-76
2023/12/22 09:01:21;;;;;;;19.80;15.40;;;;;;;5.15;100.00;98716.83;105847;1256;73819;-76
2023/12/22 09:03:49;;;;;;;21.00;16.30;;;;;;;5.19;100.00;98719.65;105753;1254;62486;-76
2023/12/22 09:06:22;;;;;;;23.90;16.70;;;;;;;5.22;100.00;98717.03;105806;1254;72594;-77
2023/12/22 09:08:49;;;;;;;21.60;17.20;;;;;;;5.23;100.00;98709.67;105797;1256;61841;-79
2023/12/22 09:11:17;;;;;;;21.10;16.30;;;;;;;5.25;100.00;98708.13;105958;1256;60461;-77
2023/12/22 09:13:44;;;;;;;23.70;17.00;;;;;;;5.29;100.00;98701.48;105788;1254;73002;-77
2023/12/22 09:16:11;;;;;;;21.00;16.20;;;;;;;5.29;100.00;98697.85;105813;1257;62385;-76
2023/12/22 09:18:38;;;;;;;27.40;16.50;;;;;;;5.27;100.00;98691.00;105830;1254;72807;-78
2023/12/22 09:21:05;;;;;;;18.10;14.30;;;;;;;5.26;100.00;98679.98;105947;1254;61257;-76
2023/12/22 09:23:33;;;;;;;23.00;16.20;;;;;;;5.27;100.00;98674.56;107114;1252;60457;-76
2023/12/22 09:26:00;;;;;;;20.70;15.10;;;;;;;5.30;100.00;98671.45;108521;1254;72621;-76
2023/12/22 09:28:27;;;;;;;21.50;16.20;;;;;;;5.33;100.00;98664.96;108605;1254;63948;-77
2023/12/22 09:30:55;;;;;;;20.50;16.40;;;;;;;5.36;100.00;98658.67;108572;1252;72701;-75
2023/12/22 09:33:22;;;;;;;19.70;14.80;;;;;;;5.38;100.00;98656.46;108110;1256;61839;-75
2023/12/22 09:35:50;;;;;;;19.90;14.90;;;;;;;5.37;100.00;98659.28;106079;1257;60373;-78
2023/12/22 09:38:18;;;;;;;22.30;16.80;;;;;;;5.36;100.00;98659.92;105875;1254;72375;-77
2023/12/22 09:40:45;;;;;;;16.60;14.00;;;;;;;5.36;100.00;98658.67;106012;1255;63188;-79
2023/12/22 09:43:12;;;;;;;16.80;13.40;;;;;;;5.35;100.00;98658.05;105928;1256;72374;-76
2023/12/22 09:45:39;;;;;;;18.80;14.40;;;;;;;5.31;100.00;98656.80;105788;1260;61157;-74
2023/12/22 09:48:06;;;;;;;17.70;14.30;;;;;;;5.25;100.00;98650.16;107215;1253;60340;-76
2023/12/22 09:50:34;;;;;;;18.80;15.10;;;;;;;5.22;100.00;98653.95;108641;1253;72659;-76
2023/12/22 09:53:01;;;;;;;18.60;14.30;;;;;;;5.20;100.00;98651.69;106575;1254;62319;-76
2023/12/22 09:55:28;;;;;;;14.10;12.00;;;;;;;5.18;100.00;98657.52;105587;1255;72690;-77
2023/12/22 09:57:55;;;;;;;19.00;12.70;;;;;;;5.12;100.00;98657.21;105785;1257;61236;-76
2023/12/22 10:00:23;;;;;;;16.70;12.70;;;;;;;5.08;100.00;98652.17;105868;1255;60545;-76
2023/12/22 10:02:50;;;;;;;20.60;12.30;;;;;;;5.08;100.00;98651.27;105830;1257;74006;-79
2023/12/22 10:05:18;;;;;;;17.10;13.00;;;;;;;5.14;100.00;98640.66;105836;1255;63802;-77
2023/12/22 10:07:46;;;;;;;16.80;13.20;;;;;;;5.24;100.00;98640.27;105651;1253;73970;-78
2023/12/22 10:10:13;;;;;;;13.70;10.80;;;;;;;5.35;100.00;98632.61;105843;1254;61081;-75
2023/12/22 10:12:44;;;;;;;15.60;11.50;;;;;;;5.43;100.00;98629.29;105696;1253;60773;-77
2023/12/22 10:15:12;;;;;;;18.40;13.80;;;;;;;5.47;100.00;98619.63;105823;1257;74206;-77
2023/12/22 10:17:40;;;;;;;16.20;12.70;;;;;;;5.49;100.00;98623.32;105782;1255;62938;-77
2023/12/22 10:20:08;;;;;;;16.20;12.40;;;;;;;5.52;100.00;98618.26;105829;1259;72650;-77
2023/12/22 10:22:35;;;;;;;15.70;10.40;;;;;;;5.53;100.00;98611.77;106101;1254;61228;-76
2023/12/22 10:25:03;;;;;;;15.00;12.50;;;;;;;5.49;100.00;98607.33;105537;1261;60459;-78
2023/12/22 10:27:31;;;;;;;18.30;13.60;;;;;;;5.48;100.00;98604.14;105845;1256;73679;-78
2023/12/22 10:29:59;;;;;;;15.90;12.90;;;;;;;5.48;100.00;98606.89;105806;1256;63956;-77
2023/12/22 10:32:26;;;;;;;20.10;12.90;;;;;;;5.50;100.00;98606.24;105598;1254;71912;-77
2023/12/22 10:34:53;;;;;;;13.60;11.70;;;;;;;5.54;100.00;98607.70;105639;1257;61121;-77
2023/12/22 10:37:21;;;;;;;15.70;11.90;;;;;;;5.56;100.00;98604.27;105948;1253;60452;-75
2023/12/22 10:39:49;;;;;;;14.10;11.70;;;;;;;5.56;100.00;98603.59;106570;1252;72395;-76
2023/12/22 10:42:16;;;;;;;13.30;10.60;;;;;;;5.53;100.00;98600.84;105760;1260;65457;-77
2023/12/22 10:44:43;;;;;;;15.80;12.10;;;;;;;5.48;100.00;98602.41;105573;1254;72983;-78
2023/12/22 10:47:10;;;;;;;14.20;11.20;;;;;;;5.42;100.00;98601.09;105761;1257;61201;-76
2023/12/22 10:49:39;;;;;;;14.20;10.50;;;;;;;5.41;100.00;98603.22;105618;1261;60483;-75
2023/12/22 10:52:06;;;;;;;11.90;10.10;;;;;;;5.37;100.00;98603.85;105792;1257;73788;-75
2023/12/22 10:54:35;;;;;;;13.30;11.20;;;;;;;5.31;100.00;98601.85;105659;1260;63704;-77
2023/12/22 10:57:05;;;;;;;14.60;11.80;;;;;;;5.24;100.00;98600.64;105646;1260;71218;-76
2023/12/22 10:59:33;;;;;;;12.20;10.70;;;;;;;5.23;100.00;98596.39;105767;1255;60604;-76
2023/12/22 11:02:04;;;;;;;18.80;12.30;;;;;;;5.29;100.00;98582.07;105693;1254;60490;-78
2023/12/22 11:04:31;;;;;;;13.00;10.40;;;;;;;5.34;100.00;98578.41;105666;1254;73603;-77
2023/12/22 11:06:59;;;;;;;14.90;11.20;;;;;;;5.35;100.00;98581.33;105840;1257;64127;-75
2023/12/22 11:09:26;;;;;;;15.60;11.10;;;;;;;5.33;100.00;98578.51;106069;1257;73716;-75
2023/12/22 11:11:53;;;;;;;14.40;11.90;;;;;;;5.31;100.00;98569.84;105712;1260;61312;-75